Time;durP1;ratioP1;P1;durP2;ratioP2;P2;SDS_P1;SDS_P2;PMS_P1;PMS_P2;Temp;Humidity;BMP_temperature;BMP_pressure;BME280_temperature;BME280_humidity;BME280_pressure;Samples;Min_cycle;Max_cycle;Signal;HPM_P1;HPM_P2
2023/01/28 00:01:32;;;;;;;37.17;16.95;;;;;;;6.23;61.63;99946.75;4259788;33;33623;-76
2023/01/28 00:04:00;;;;;;;37.50;17.80;;;;;;;4.10;67.97;99952.78;4260034;33;35391;-80
2023/01/28 00:06:27;;;;;;;45.67;18.50;;;;;;;4.14;69.61;99959.91;4257707;33;33833;-79
2023/01/28 00:08:55;;;;;;;37.83;17.00;;;;;;;4.53;67.51;99961.00;4260460;33;34344;-79
2023/01/28 00:11:22;;;;;;;39.33;17.45;;;;;;;5.84;64.18;99951.06;4258048;33;33742;-77
2023/01/28 00:13:51;;;;;;;38.72;18.50;;;;;;;6.66;59.21;99949.47;4260349;33;33916;-78
2023/01/28 00:16:21;;;;;;;42.13;17.75;;;;;;;5.68;62.67;99942.34;4247638;33;33677;-77
2023/01/28 00:18:50;;;;;;;40.85;18.60;;;;;;;4.85;65.23;99961.50;4260187;33;33557;-78
2023/01/28 00:21:18;;;;;;;34.35;17.33;;;;;;;4.18;68.31;99970.41;4259221;33;34750;-77
2023/01/28 00:23:53;;;;;;;40.65;16.65;;;;;;;3.56;71.40;99965.00;4258049;33;33858;-77
2023/01/28 00:26:22;;;;;;;40.30;17.90;;;;;;;3.61;70.97;99966.22;4254154;33;34360;-78
2023/01/28 00:28:50;;;;;;;43.00;18.58;;;;;;;3.82;71.86;99967.81;4243879;33;33542;-77
2023/01/28 00:31:20;;;;;;;39.53;17.95;;;;;;;3.82;70.87;99964.34;4257373;33;32468;-78
2023/01/28 00:33:50;;;;;;;38.58;18.52;;;;;;;3.69;70.78;99963.47;4258023;33;33660;-78
2023/01/28 00:36:18;;;;;;;41.83;18.08;;;;;;;5.17;67.47;99963.72;4244303;33;33469;-77
2023/01/28 00:38:54;;;;;;;43.50;18.12;;;;;;;6.33;62.88;99964.53;4256899;33;35713;-79
2023/01/28 00:41:25;;;;;;;48.17;18.37;;;;;;;6.95;60.31;99963.25;4245676;33;34385;-79
2023/01/28 00:43:52;;;;;;;37.92;17.30;;;;;;;6.21;62.27;99963.78;4260827;33;34930;-78
2023/01/28 00:46:21;;;;;;;42.70;19.17;;;;;;;6.44;60.35;99966.12;4260808;33;32904;-77
2023/01/28 00:48:49;;;;;;;37.78;17.92;;;;;;;8.21;55.81;99965.56;4247748;33;32404;-78
2023/01/28 00:51:18;;;;;;;43.63;19.55;;;;;;;6.30;59.38;99970.41;4258844;33;34548;-78
2023/01/28 00:53:48;;;;;;;43.40;18.87;;;;;;;5.58;61.43;99970.78;4260640;33;34137;-78
2023/01/28 00:56:18;;;;;;;45.53;19.48;;;;;;;5.98;63.02;99970.87;4256366;33;33508;-78
2023/01/28 00:58:46;;;;;;;43.53;19.52;;;;;;;7.57;56.82;99967.84;4260706;33;33902;-78
2023/01/28 01:01:17;;;;;;;40.20;19.35;;;;;;;8.33;54.42;99961.06;4258575;33;33811;-77
2023/01/28 01:03:45;;;;;;;43.03;19.52;;;;;;;8.36;53.92;99966.38;4243932;33;34559;-77
2023/01/28 01:06:15;;;;;;;42.75;19.08;;;;;;;6.88;57.12;99973.19;4234037;33;32090;-77
2023/01/28 01:08:48;;;;;;;41.95;18.60;;;;;;;8.30;53.54;99972.91;4254657;33;34679;-76
2023/01/28 01:11:17;;;;;;;43.13;18.77;;;;;;;7.98;54.63;99967.69;4257140;33;34770;-77
2023/01/28 01:13:55;;;;;;;42.25;18.55;;;;;;;8.06;54.32;99963.87;4259230;33;34728;-77
2023/01/28 01:16:26;;;;;;;41.40;18.85;;;;;;;6.24;60.62;99974.28;4260664;33;33737;-77
2023/01/28 01:18:54;;;;;;;42.08;17.87;;;;;;;7.85;55.21;99965.22;4260469;33;33409;-77
2023/01/28 01:21:23;;;;;;;40.60;18.10;;;;;;;8.05;54.59;99969.84;4258030;33;33840;-77
2023/01/28 01:23:52;;;;;;;40.63;19.45;;;;;;;7.63;55.63;99966.53;4260416;33;34786;-77
2023/01/28 01:26:21;;;;;;;36.67;17.20;;;;;;;7.22;56.72;99966.62;4260201;33;33510;-77
2023/01/28 01:28:50;;;;;;;40.63;18.40;;;;;;;7.77;54.33;99967.34;4260494;33;33758;-77
2023/01/28 01:31:20;;;;;;;39.70;18.12;;;;;;;6.53;58.70;99972.63;4259597;33;33752;-76
2023/01/28 01:33:49;;;;;;;38.47;18.20;;;;;;;6.21;59.79;99976.63;4259084;33;33873;-77
2023/01/28 01:36:18;;;;;;;39.70;18.37;;;;;;;5.99;60.88;99977.81;4235351;33;34513;-77
2023/01/28 01:38:47;;;;;;;34.53;16.67;;;;;;;7.76;55.38;99969.81;4257763;33;33953;-77
2023/01/28 01:41:27;;;;;;;42.03;17.95;;;;;;;7.72;55.24;99975.59;4247429;33;33331;-77
2023/01/28 01:44:01;;;;;;;37.10;17.17;;;;;;;7.39;55.60;99965.06;4254749;33;33973;-77
2023/01/28 01:46:38;;;;;;;38.85;18.27;;;;;;;7.24;56.34;99978.81;4246862;33;34316;-77
2023/01/28 01:49:19;;;;;;;41.30;19.75;;;;;;;6.78;57.26;99980.22;4260512;33;34565;-76
2023/01/28 01:51:49;;;;;;;39.60;18.75;;;;;;;6.72;57.42;99978.16;4246439;33;34001;-76
2023/01/28 01:54:18;;;;;;;40.90;19.05;;;;;;;5.47;61.22;99995.75;4259391;33;34551;-76
2023/01/28 01:56:46;;;;;;;42.65;19.85;;;;;;;3.27;70.00;99994.41;4259944;33;33659;-77
2023/01/28 01:59:18;;;;;;;51.97;22.17;;;;;;;2.46;74.84;100000.06;4247148;33;33833;-77
2023/01/28 02:01:46;;;;;;;45.88;20.40;;;;;;;2.95;73.04;99991.16;4259107;33;33888;-76
2023/01/28 02:04:19;;;;;;;47.58;21.83;;;;;;;1.85;78.07;100000.22;4258307;33;34721;-77
2023/01/28 02:06:47;;;;;;;43.63;19.87;;;;;;;2.48;76.20;100003.63;4247204;33;33321;-77
2023/01/28 02:09:25;;;;;;;43.22;19.70;;;;;;;2.47;76.91;99995.84;4259397;33;33924;-76
2023/01/28 02:11:55;;;;;;;49.08;21.05;;;;;;;2.43;76.63;99994.69;4259211;33;34530;-76
2023/01/28 02:14:25;;;;;;;49.55;21.85;;;;;;;2.02;78.85;99994.81;4246894;33;34172;-77
2023/01/28 02:17:01;;;;;;;49.88;21.95;;;;;;;2.06;78.62;99999.41;4260037;33;33541;-76
2023/01/28 02:19:36;;;;;;;45.92;20.25;;;;;;;2.27;78.69;99999.38;4247064;33;34050;-76
2023/01/28 02:22:09;;;;;;;48.15;21.80;;;;;;;2.69;77.11;99998.44;4258292;33;33555;-77
2023/01/28 02:24:59;;;;;;;48.33;21.08;;;;;;;2.38;77.49;99996.00;4258237;33;34843;-76
2023/01/28 02:27:57;;;;;;;47.90;21.02;;;;;;;2.75;76.29;99994.69;4245820;33;34471;-77
2023/01/28 02:30:29;;;;;;;44.38;19.73;;;;;;;4.27;69.35;99987.34;4258336;33;34732;-77
2023/01/28 02:33:05;;;;;;;44.88;20.08;;;;;;;3.12;73.51;99992.44;4248828;33;33548;-77
2023/01/28 02:35:37;;;;;;;42.70;19.55;;;;;;;4.64;69.87;99983.97;4246561;33;34013;-77
2023/01/28 02:38:12;;;;;;;44.65;18.92;;;;;;;5.15;65.90;99985.81;4246313;33;33683;-77
2023/01/28 02:41:01;;;;;;;41.20;18.95;;;;;;;4.26;67.58;99984.66;4253777;33;34340;-77
2023/01/28 02:43:31;;;;;;;45.00;19.15;;;;;;;4.75;65.04;99988.16;4260376;33;33891;-77
2023/01/28 02:48:45;;;;;;;41.03;18.45;;;;;;;3.30;72.32;99987.84;4250675;33;34485;-77
2023/01/28 02:51:25;;;;;;;44.13;19.27;;;;;;;4.86;65.96;99982.12;4258782;33;33421;-77
2023/01/28 02:54:11;;;;;;;43.55;20.17;;;;;;;5.62;63.77;99972.78;4246439;33;34798;-77
2023/01/28 02:56:46;;;;;;;43.87;19.42;;;;;;;3.53;70.73;99988.69;4249191;33;34169;-77
2023/01/28 02:59:35;;;;;;;44.00;19.65;;;;;;;3.14;72.37;99990.88;4261411;33;34147;-77
2023/01/28 03:02:37;;;;;;;44.22;18.67;;;;;;;3.78;70.83;99982.84;4245969;33;33882;-77
2023/01/28 03:05:10;;;;;;;47.60;21.50;;;;;;;3.55;71.92;99984.56;4247890;33;34558;-77
2023/01/28 03:07:38;;;;;;;43.22;20.23;;;;;;;3.91;70.49;99985.53;4259284;33;34169;-77
2023/01/28 03:10:08;;;;;;;47.45;20.02;;;;;;;2.72;74.82;99983.31;4260784;33;33746;-76
2023/01/28 03:38:41;;;;;;;47.72;20.50;;;;;;;1.69;80.04;100001.50;4250262;33;33841;-76
2023/01/28 03:41:10;;;;;;;51.92;21.50;;;;;;;2.17;79.14;99990.06;4261053;33;34942;-77
2023/01/28 03:43:38;;;;;;;44.67;19.35;;;;;;;3.25;74.06;99994.28;4260980;33;33421;-77
2023/01/28 03:46:05;;;;;;;44.45;21.30;;;;;;;4.52;70.03;100000.28;4252923;33;33407;-77
2023/01/28 03:48:34;;;;;;;44.63;20.42;;;;;;;3.56;72.42;99999.19;4260938;33;33368;-77
2023/01/28 03:51:02;;;;;;;45.45;20.80;;;;;;;3.97;71.39;99996.25;4260850;33;34851;-76
2023/01/28 03:53:32;;;;;;;43.13;20.10;;;;;;;4.08;68.58;99999.59;4260738;33;34121;-77
2023/01/28 03:55:59;;;;;;;43.58;19.75;;;;;;;5.56;66.21;99995.47;4259031;33;34558;-77
2023/01/28 03:58:44;;;;;;;44.50;20.17;;;;;;;3.67;70.71;100011.13;4260846;33;34638;-77
2023/01/28 04:01:12;;;;;;;;;;;;;;;3.68;71.90;100007.78;4260927;33;33966;-77
2023/01/28 04:03:41;;;;;;;44.50;19.92;;;;;;;2.39;77.04;100008.00;4247657;33;33658;-77
2023/01/28 04:06:09;;;;;;;40.55;18.48;;;;;;;2.81;76.22;100017.31;4248166;33;34303;-77
2023/01/28 04:08:38;;;;;;;47.90;20.40;;;;;;;3.35;74.15;100012.12;4260128;33;33674;-77
2023/01/28 04:11:18;;;;;;;45.35;20.70;;;;;;;3.46;73.39;100001.81;4260722;33;33927;-77
2023/01/28 04:13:47;;;;;;;42.95;19.87;;;;;;;3.00;74.53;100008.53;4249763;33;33242;-77
2023/01/28 04:16:16;;;;;;;45.47;20.88;;;;;;;3.59;73.37;100001.94;4257094;33;34041;-77
2023/01/28 04:18:44;;;;;;;44.30;20.05;;;;;;;5.07;66.89;100010.09;4253507;33;33826;-77
2023/01/28 04:21:12;;;;;;;40.25;19.83;;;;;;;4.47;68.92;100008.41;4261450;33;33604;-77
2023/01/28 04:23:40;;;;;;;46.92;19.92;;;;;;;3.29;72.98;100001.41;4249367;33;34238;-77
2023/01/28 04:26:08;;;;;;;50.53;21.80;;;;;;;2.45;76.41;100002.50;4260926;33;34027;-77
2023/01/28 04:28:36;;;;;;;44.13;20.42;;;;;;;2.27;78.01;100015.59;4260589;33;34681;-76
2023/01/28 04:31:05;;;;;;;44.28;21.17;;;;;;;3.03;75.59;100018.97;4260768;33;34241;-77
2023/01/28 04:33:33;;;;;;;43.85;20.50;;;;;;;2.89;75.97;100013.69;4260799;33;33540;-77
2023/01/28 04:36:01;;;;;;;44.47;19.83;;;;;;;3.88;72.87;100016.06;4255316;33;34518;-77
2023/01/28 04:38:29;;;;;;;43.97;19.55;;;;;;;2.87;76.38;100020.34;4256057;33;33441;-77
2023/01/28 04:40:57;;;;;;;43.53;19.10;;;;;;;3.95;72.25;100020.88;4260814;33;34221;-77
2023/01/28 04:43:25;;;;;;;42.70;19.65;;;;;;;3.78;71.86;100018.72;4260680;33;33297;-77
2023/01/28 04:45:53;;;;;;;42.47;19.83;;;;;;;2.64;77.36;100020.19;4260266;33;34606;-77
2023/01/28 04:48:20;;;;;;;48.05;21.37;;;;;;;2.90;76.82;100028.28;4252782;33;34039;-77
2023/01/28 04:50:49;;;;;;;41.97;19.58;;;;;;;3.47;73.38;100026.66;4259591;33;34532;-77
2023/01/28 04:53:17;;;;;;;42.60;19.50;;;;;;;3.59;71.19;100026.69;4260662;33;34647;-77
2023/01/28 04:55:45;;;;;;;45.28;19.73;;;;;;;2.93;76.14;100025.94;4259990;33;34041;-77
2023/01/28 04:58:13;;;;;;;42.95;19.70;;;;;;;3.61;73.50;100030.25;4260409;33;33947;-76
2023/01/28 05:00:41;;;;;;;43.17;19.08;;;;;;;3.02;75.39;100035.12;4244776;33;34135;-77
2023/01/28 05:03:10;;;;;;;45.33;19.37;;;;;;;4.04;72.49;100024.13;4257770;33;34429;-77
2023/01/28 05:05:38;;;;;;;38.95;19.95;;;;;;;6.54;63.30;100020.75;4260430;33;33625;-77
2023/01/28 05:08:07;;;;;;;39.78;20.20;;;;;;;7.81;58.26;100020.00;4257240;33;33924;-77
2023/01/28 05:10:35;;;;;;;40.15;18.92;;;;;;;6.95;58.11;100033.66;4259920;33;34351;-77
2023/01/28 05:13:03;;;;;;;40.22;19.00;;;;;;;7.77;57.57;100028.34;4260063;33;34896;-77
2023/01/28 05:15:31;;;;;;;38.78;19.52;;;;;;;8.62;54.42;100026.41;4259729;33;33957;-77
2023/01/28 05:17:58;;;;;;;44.20;22.42;;;;;;;4.22;67.04;100028.81;4244431;33;33993;-77
2023/01/28 05:20:27;;;;;;;45.35;20.90;;;;;;;7.92;56.87;100034.41;4246224;33;34769;-77
2023/01/28 05:22:56;;;;;;;37.60;18.70;;;;;;;9.23;51.82;100037.53;4246009;33;33734;-77
2023/01/28 05:25:23;;;;;;;45.12;20.35;;;;;;;8.34;53.33;100034.22;4256689;33;34036;-78
2023/01/28 05:27:51;;;;;;;41.88;19.23;;;;;;;7.49;57.26;100031.81;4246534;33;33939;-77
2023/01/28 05:30:19;;;;;;;43.78;19.85;;;;;;;6.27;59.98;100038.75;4246094;33;34687;-77
2023/01/28 05:32:47;;;;;;;42.05;20.45;;;;;;;7.91;55.38;100027.47;4246142;33;33447;-77
2023/01/28 05:35:15;;;;;;;35.35;16.20;;;;;;;7.91;54.89;100031.75;4246170;33;33880;-77
2023/01/28 05:37:43;;;;;;;41.03;17.02;;;;;;;6.94;57.42;100043.91;4256468;33;33748;-77
2023/01/28 05:40:11;;;;;;;39.85;17.48;;;;;;;7.09;57.58;100039.72;4245675;33;34136;-77
2023/01/28 05:42:39;;;;;;;41.25;19.58;;;;;;;7.15;57.18;100039.22;4245867;33;33185;-76
2023/01/28 05:45:08;;;;;;;41.75;21.05;;;;;;;5.28;64.10;100044.06;4246044;33;34564;-77
2023/01/28 05:47:37;;;;;;;45.70;22.10;;;;;;;6.14;61.05;100033.59;4245641;33;34690;-76
2023/01/28 05:50:06;;;;;;;48.90;21.92;;;;;;;5.84;61.69;100038.47;4245707;33;34104;-76
2023/01/28 05:52:34;;;;;;;48.60;22.50;;;;;;;5.26;64.22;100056.81;4245029;33;33774;-76
2023/01/28 05:55:01;;;;;;;46.53;22.30;;;;;;;5.69;62.91;100057.19;4246048;33;33806;-77
2023/01/28 05:57:29;;;;;;;49.97;22.20;;;;;;;5.66;62.95;100054.41;4245950;33;33761;-77
2023/01/28 05:59:57;;;;;;;43.22;20.37;;;;;;;4.89;65.41;100056.78;4246018;33;34193;-77
2023/01/28 06:02:24;;;;;;;46.63;21.02;;;;;;;4.95;65.59;100058.00;4243433;33;33026;-77
2023/01/28 06:04:52;;;;;;;44.38;20.77;;;;;;;4.93;65.46;100050.19;4245651;33;34034;-77
2023/01/28 06:07:20;;;;;;;44.33;19.98;;;;;;;4.62;66.89;100054.81;4245805;33;33249;-77
2023/01/28 06:09:48;;;;;;;47.85;21.45;;;;;;;4.64;66.77;100060.94;4246014;33;34845;-76
2023/01/28 06:12:16;;;;;;;53.50;24.25;;;;;;;5.24;64.76;100062.62;4243553;33;32475;-76
2023/01/28 06:14:45;;;;;;;56.65;24.77;;;;;;;5.47;63.91;100061.66;4245200;33;34069;-77
2023/01/28 06:17:13;;;;;;;62.28;27.80;;;;;;;5.47;63.79;100071.94;4246530;33;34568;-77
2023/01/28 06:19:43;;;;;;;68.70;27.80;;;;;;;4.95;65.55;100075.97;4259456;33;34527;-76
2023/01/28 06:22:10;;;;;;;61.55;25.95;;;;;;;4.62;66.96;100072.78;4251431;33;34202;-77
2023/01/28 06:24:38;;;;;;;107.55;42.00;;;;;;;4.75;66.24;100075.41;4264548;33;33628;-77
2023/01/28 06:27:05;;;;;;;67.25;30.20;;;;;;;5.17;64.92;100071.56;4263607;33;33823;-76
2023/01/28 06:29:33;;;;;;;68.40;30.65;;;;;;;4.98;65.79;100079.62;4251390;33;34315;-76
2023/01/28 06:32:00;;;;;;;49.85;23.27;;;;;;;5.76;62.80;100076.50;4264523;33;33695;-76
2023/01/28 06:34:28;;;;;;;51.70;23.52;;;;;;;4.72;65.61;100085.47;4264201;33;33555;-76
2023/01/28 06:36:56;;;;;;;52.13;23.33;;;;;;;4.93;65.94;100092.16;4263921;33;34476;-77
2023/01/28 06:39:25;;;;;;;53.75;24.08;;;;;;;5.52;62.95;100096.25;4264238;33;34891;-76
2023/01/28 06:41:53;;;;;;;59.13;25.02;;;;;;;5.53;63.41;100098.03;4251448;33;34608;-77
2023/01/28 06:44:22;;;;;;;52.15;24.10;;;;;;;5.18;64.50;100093.03;4263412;33;33673;-77
2023/01/28 06:46:49;;;;;;;55.33;24.75;;;;;;;4.89;65.48;100102.97;4263960;33;33409;-76
2023/01/28 06:49:17;;;;;;;52.33;24.15;;;;;;;4.95;65.47;100109.34;4263496;33;34264;-77
2023/01/28 06:51:45;;;;;;;54.97;26.40;;;;;;;5.21;64.40;100113.75;4264245;33;33734;-76
2023/01/28 06:54:12;;;;;;;55.53;27.17;;;;;;;5.81;62.31;100110.22;4251173;33;34389;-77
2023/01/28 06:56:40;;;;;;;47.10;22.45;;;;;;;5.43;63.42;100116.19;4250784;33;33671;-76
2023/01/28 06:59:07;;;;;;;50.85;24.37;;;;;;;5.00;64.42;100118.25;4250559;33;32779;-76
2023/01/28 07:01:35;;;;;;;47.05;23.45;;;;;;;4.83;65.63;100119.59;4260400;33;33692;-77
2023/01/28 07:04:03;;;;;;;51.17;23.12;;;;;;;4.92;65.56;100125.41;4263593;33;34433;-76
2023/01/28 07:06:30;;;;;;;47.45;21.00;;;;;;;3.78;70.52;100131.47;4262057;33;33567;-76
2023/01/28 07:08:58;;;;;;;41.37;20.77;;;;;;;5.32;64.44;100134.28;4261932;33;34164;-76
2023/01/28 07:11:25;;;;;;;41.22;20.05;;;;;;;4.12;66.44;100138.38;4257578;33;175688;-77
2023/01/28 07:13:53;;;;;;;39.03;18.25;;;;;;;5.44;63.68;100133.38;4263702;33;33910;-77
2023/01/28 07:16:21;;;;;;;42.95;20.80;;;;;;;5.32;63.24;100136.84;4262314;33;33988;-77
2023/01/28 07:18:50;;;;;;;39.58;19.20;;;;;;;5.71;62.40;100140.41;4260497;33;33915;-77
2023/01/28 07:21:17;;;;;;;38.22;18.42;;;;;;;5.66;61.64;100141.81;4259802;33;33754;-76
2023/01/28 07:23:44;;;;;;;40.17;18.48;;;;;;;3.62;68.85;100145.66;4261399;33;33909;-76
2023/01/28 07:26:12;;;;;;;43.40;20.85;;;;;;;4.81;65.99;100141.69;4263179;33;33935;-77
2023/01/28 07:28:40;;;;;;;41.67;19.33;;;;;;;5.95;61.92;100150.69;4255252;33;33808;-76
2023/01/28 07:31:08;;;;;;;46.92;19.12;;;;;;;6.59;59.09;100142.94;4256309;33;33651;-77
2023/01/28 07:33:35;;;;;;;39.75;18.27;;;;;;;7.07;58.15;100146.91;4259014;33;33627;-77
2023/01/28 07:36:03;;;;;;;41.80;20.65;;;;;;;6.49;59.18;100142.31;4261001;33;34567;-77
2023/01/28 07:38:31;;;;;;;37.22;17.42;;;;;;;6.08;60.61;100157.53;4260474;33;34582;-78
2023/01/28 07:40:58;;;;;;;36.33;16.40;;;;;;;6.94;58.22;100147.78;4260902;33;33741;-77
2023/01/28 07:43:26;;;;;;;35.40;15.82;;;;;;;6.24;59.37;100149.19;4260341;33;33670;-77
2023/01/28 07:45:53;;;;;;;37.30;16.10;;;;;;;6.71;58.50;100142.84;4260962;33;34431;-77
2023/01/28 07:48:21;;;;;;;42.03;17.85;;;;;;;5.76;61.75;100148.47;4260549;33;34757;-77
2023/01/28 07:50:50;;;;;;;35.92;16.83;;;;;;;5.87;61.26;100151.75;4260430;33;33550;-77
2023/01/28 07:53:18;;;;;;;34.67;16.62;;;;;;;6.07;60.95;100151.50;4258376;33;33951;-77
2023/01/28 07:55:46;;;;;;;40.17;18.62;;;;;;;7.01;58.06;100149.06;4260703;33;33896;-77
2023/01/28 07:58:14;;;;;;;41.88;18.50;;;;;;;6.55;59.07;100146.97;4260639;33;34208;-77
2023/01/28 08:00:41;;;;;;;37.95;16.25;;;;;;;6.33;60.29;100157.50;4258627;33;34139;-78
2023/01/28 08:03:14;;;;;;;37.45;17.08;;;;;;;6.81;58.49;100148.69;4259378;33;33636;-77
2023/01/28 08:05:47;;;;;;;35.80;16.40;;;;;;;6.03;61.10;100154.66;4260798;33;33911;-76
2023/01/28 08:08:15;;;;;;;35.20;16.25;;;;;;;6.78;59.16;100153.63;4245499;33;34227;-76
2023/01/28 08:10:43;;;;;;;40.88;16.60;;;;;;;6.42;60.20;100154.69;4260331;33;33723;-77
2023/01/28 08:13:12;;;;;;;37.53;18.42;;;;;;;6.22;61.12;100158.47;4247283;33;34669;-77
2023/01/28 08:15:40;;;;;;;38.47;16.77;;;;;;;6.62;60.10;100159.44;4255191;33;33456;-77
2023/01/28 08:18:12;;;;;;;44.45;19.37;;;;;;;5.86;62.51;100168.88;4257011;33;33395;-77
2023/01/28 08:20:41;;;;;;;51.45;21.35;;;;;;;6.28;60.87;100156.31;4259505;33;33325;-78
2023/01/28 08:23:15;;;;;;;44.65;20.85;;;;;;;6.40;60.68;100151.09;4257608;33;34724;-79
2023/01/28 08:25:42;;;;;;;42.35;17.85;;;;;;;5.75;62.29;100166.34;4247594;33;34766;-77
2023/01/28 08:28:11;;;;;;;43.42;18.15;;;;;;;4.56;66.17;100164.66;4259810;33;34552;-77
2023/01/28 08:30:39;;;;;;;38.50;18.75;;;;;;;4.19;68.04;100172.16;4260351;33;34440;-79
2023/01/28 08:33:08;;;;;;;40.35;19.70;;;;;;;4.64;66.55;100173.84;4244694;33;33938;-77
2023/01/28 08:35:36;;;;;;;40.45;21.15;;;;;;;5.06;64.96;100173.53;4245377;33;34627;-76
2023/01/28 08:38:05;;;;;;;40.55;18.17;;;;;;;4.68;66.73;100170.72;4247815;33;34907;-78
2023/01/28 08:40:33;;;;;;;41.00;18.95;;;;;;;4.45;69.69;100180.16;4234348;33;35284;-77
2023/01/28 08:43:01;;;;;;;46.45;20.80;;;;;;;5.56;64.95;100180.47;4246382;33;34723;-78
2023/01/28 08:45:29;;;;;;;41.13;18.67;;;;;;;5.83;64.15;100185.75;4255774;33;33970;-76
2023/01/28 08:48:01;;;;;;;37.85;17.85;;;;;;;5.80;63.68;100183.88;4258447;33;34831;-77
2023/01/28 08:50:33;;;;;;;37.78;16.98;;;;;;;5.17;66.00;100189.69;4257028;33;34115;-78
2023/01/28 08:53:03;;;;;;;40.97;18.30;;;;;;;4.62;67.29;100185.66;4244443;33;33702;-78
2023/01/28 08:55:32;;;;;;;40.75;17.00;;;;;;;4.73;66.37;100195.94;4260336;33;33025;-77
2023/01/28 08:58:04;;;;;;;40.72;17.35;;;;;;;5.32;64.66;100190.78;4260007;33;34254;-78
2023/01/28 09:00:33;;;;;;;35.97;17.90;;;;;;;5.30;65.08;100196.63;4259830;33;34140;-79
2023/01/28 09:03:01;;;;;;;38.33;16.90;;;;;;;6.62;61.26;100194.59;4258050;33;33571;-79
2023/01/28 09:05:36;;;;;;;36.35;16.67;;;;;;;6.15;61.98;100202.59;4259873;33;34664;-78
2023/01/28 09:08:11;;;;;;;26.98;14.13;;;;;;;6.55;61.13;100200.13;4246743;33;34085;-77
2023/01/28 09:10:40;;;;;;;37.50;15.85;;;;;;;6.35;62.01;100206.50;4247924;33;34065;-79
2023/01/28 09:13:14;;;;;;;33.60;13.43;;;;;;;6.17;62.39;100208.72;4256578;33;34420;-79
2023/01/28 09:15:42;;;;;;;36.88;15.93;;;;;;;6.13;63.00;100210.19;4260479;33;33811;-80
2023/01/28 09:18:10;;;;;;;34.60;15.90;;;;;;;5.95;63.62;100211.44;4260546;33;33951;-80
2023/01/28 09:20:38;;;;;;;36.80;16.17;;;;;;;5.87;63.92;100213.47;4247186;33;33981;-79
2023/01/28 09:23:07;;;;;;;43.22;18.00;;;;;;;6.36;62.34;100214.34;4259988;33;33706;-80
2023/01/28 09:25:37;;;;;;;36.78;17.12;;;;;;;6.18;63.78;100221.69;4248115;33;34346;-80
2023/01/28 09:28:05;;;;;;;39.10;17.27;;;;;;;6.65;61.34;100215.41;4248038;33;34038;-79
2023/01/28 09:30:34;;;;;;;39.28;17.92;;;;;;;6.55;61.77;100215.56;4256042;33;33710;-78
2023/01/28 09:33:05;;;;;;;35.00;16.42;;;;;;;7.19;60.38;100211.22;4232558;33;33604;-78
2023/01/28 09:35:33;;;;;;;35.85;16.70;;;;;;;7.28;59.67;100217.84;4246951;33;34701;-78
2023/01/28 09:38:00;;;;;;;42.60;19.05;;;;;;;7.13;59.95;100215.94;4259918;33;33871;-81
2023/01/28 09:40:33;;;;;;;36.97;16.85;;;;;;;6.60;62.74;100219.34;4258871;33;33622;-79
2023/01/28 09:43:36;;;;;;;36.38;16.50;;;;;;;7.09;60.20;100220.03;4245926;33;33860;-79
2023/01/28 09:46:05;;;;;;;39.83;17.87;;;;;;;6.46;62.00;100219.31;4243006;33;34124;-78
2023/01/28 09:48:40;;;;;;;42.50;18.65;;;;;;;5.15;66.17;100227.22;4257623;33;34886;-78
2023/01/28 09:51:26;;;;;;;38.08;15.90;;;;;;;6.56;63.61;100212.22;4237245;33;32536;-78
2023/01/28 09:53:57;;;;;;;37.03;17.08;;;;;;;7.01;60.97;100210.88;4256775;33;34640;-76
2023/01/28 09:56:29;;;;;;;40.50;18.20;;;;;;;5.94;64.14;100222.53;4245270;33;34319;-77
2023/01/28 09:59:04;;;;;;;39.55;18.12;;;;;;;4.25;68.49;100222.25;4253384;33;34232;-80
2023/01/28 10:01:43;;;;;;;45.65;18.27;;;;;;;2.98;77.60;100228.47;4232347;33;33751;-78
2023/01/28 10:04:21;;;;;;;42.38;18.50;;;;;;;3.63;76.58;100219.19;4234712;33;33824;-77
2023/01/28 10:07:10;;;;;;;42.90;18.90;;;;;;;4.52;70.60;100220.88;4256724;33;34456;-78
2023/01/28 10:09:52;;;;;;;40.25;17.67;;;;;;;3.22;79.02;100219.31;4244170;33;33823;-78
2023/01/28 10:12:41;;;;;;;38.38;17.62;;;;;;;5.23;70.02;100207.22;4256915;33;33365;-77
2023/01/28 10:15:33;;;;;;;33.72;15.80;;;;;;;4.57;71.96;100212.66;4257836;33;35540;-77
2023/01/28 10:18:03;;;;;;;34.42;15.18;;;;;;;5.44;68.53;100205.31;4256067;33;33075;-78
2023/01/28 10:20:54;;;;;;;29.55;15.25;;;;;;;6.16;64.39;100206.91;4247544;33;34823;-78
2023/01/28 10:23:48;;;;;;;36.47;16.70;;;;;;;4.51;68.93;100213.06;4246799;33;34338;-77
2023/01/28 10:26:22;;;;;;;34.67;15.68;;;;;;;6.06;66.08;100211.41;4258844;33;33201;-78
2023/01/28 10:28:54;;;;;;;33.85;16.48;;;;;;;7.36;60.23;100201.97;4259473;33;33562;-77
2023/01/28 10:31:23;;;;;;;37.33;18.00;;;;;;;4.61;68.61;100206.97;4245938;33;34147;-77
2023/01/28 10:33:50;;;;;;;40.83;18.37;;;;;;;4.95;69.41;100218.06;4259498;33;33368;-78
2023/01/28 10:36:18;;;;;;;39.00;17.73;;;;;;;3.50;74.56;100212.19;4259699;33;34753;-77
2023/01/28 10:38:46;;;;;;;37.42;16.80;;;;;;;4.02;74.00;100220.50;4246749;33;33799;-77
2023/01/28 10:41:19;;;;;;;36.20;17.35;;;;;;;3.69;75.59;100219.66;4256709;33;34104;-78
2023/01/28 10:43:48;;;;;;;42.72;18.98;;;;;;;4.47;73.09;100222.22;4240544;33;33519;-78
2023/01/28 10:46:27;;;;;;;36.72;16.90;;;;;;;3.74;74.94;100226.00;4244867;33;33075;-78
2023/01/28 10:49:40;;;;;;;39.55;17.50;;;;;;;6.39;64.70;100211.06;4255941;33;33923;-78
2023/01/28 10:52:12;;;;;;;36.65;16.67;;;;;;;3.69;75.42;100219.66;4197425;33;34523;-78
2023/01/28 10:54:40;;;;;;;43.00;17.08;;;;;;;4.00;73.46;100216.91;4213979;33;34007;-78
2023/01/28 10:57:13;;;;;;;35.58;17.67;;;;;;;3.97;72.59;100210.66;4233715;33;32585;-77
2023/01/28 10:59:41;;;;;;;43.90;17.90;;;;;;;4.28;72.28;100219.03;4244109;33;34660;-78
2023/01/28 11:02:26;;;;;;;34.55;15.77;;;;;;;5.31;69.18;100203.53;4240262;33;33815;-78
2023/01/28 11:05:25;;;;;;;32.72;16.62;;;;;;;6.20;65.19;100214.06;4259322;33;33514;-77
2023/01/28 11:08:15;;;;;;;38.85;18.95;;;;;;;3.25;75.15;100224.69;4247670;33;33542;-77
2023/01/28 11:10:47;;;;;;;34.85;17.20;;;;;;;3.72;75.38;100213.87;4247622;33;33552;-77
2023/01/28 11:13:20;;;;;;;32.85;17.05;;;;;;;3.39;74.43;100217.22;4261327;33;35044;-77
2023/01/28 11:16:16;;;;;;;31.35;14.45;;;;;;;3.77;74.00;100209.09;4258096;33;33834;-78
2023/01/28 11:18:51;;;;;;;34.70;16.58;;;;;;;5.56;67.74;100210.41;4243631;33;34563;-77
2023/01/28 11:21:22;;;;;;;36.25;16.30;;;;;;;4.86;67.45;100208.00;4256225;33;33439;-79
2023/01/28 11:24:03;;;;;;;37.05;16.23;;;;;;;5.54;67.08;100206.84;4257230;33;34093;-79
2023/01/28 11:26:37;;;;;;;36.95;17.83;;;;;;;5.67;66.46;100205.25;4253136;33;33601;-80
2023/01/28 11:29:05;;;;;;;35.55;17.10;;;;;;;4.66;69.39;100208.19;4257491;33;33500;-77
2023/01/28 11:31:39;;;;;;;37.38;16.77;;;;;;;4.42;69.76;100205.56;4259102;33;33523;-79
2023/01/28 11:34:07;;;;;;;33.30;15.18;;;;;;;4.48;72.20;100208.62;4245079;33;34739;-78
2023/01/28 11:36:34;;;;;;;31.92;15.27;;;;;;;5.37;68.17;100198.84;4259915;33;33984;-77
2023/01/28 11:39:17;;;;;;;38.88;18.73;;;;;;;6.25;65.32;100205.88;4245509;33;33874;-77
2023/01/28 11:41:46;;;;;;;38.20;18.60;;;;;;;4.28;70.85;100204.53;4255932;33;34328;-78
2023/01/28 11:44:22;;;;;;;36.15;17.50;;;;;;;3.29;74.98;100196.00;4262966;33;34187;-79
2023/01/28 11:47:11;;;;;;;37.33;16.60;;;;;;;3.62;75.48;100204.56;4260915;33;33104;-78
2023/01/28 11:49:47;;;;;;;34.13;16.67;;;;;;;5.92;66.61;100206.97;4251971;33;34813;-77
2023/01/28 11:52:30;;;;;;;28.23;14.40;;;;;;;4.01;71.18;100208.44;4253966;33;34836;-78
2023/01/28 11:55:39;;;;;;;31.87;15.43;;;;;;;6.61;63.08;100197.97;4259814;33;34879;-79
2023/01/28 11:58:31;;;;;;;34.65;16.08;;;;;;;3.55;73.08;100197.16;4247175;33;33629;-79
2023/01/28 12:01:16;;;;;;;33.85;15.80;;;;;;;3.44;73.93;100195.41;4260148;33;33859;-77
2023/01/28 12:04:19;;;;;;;31.30;14.20;;;;;;;6.04;64.93;100197.56;4256600;33;33648;-77
2023/01/28 12:07:12;;;;;;;30.85;15.13;;;;;;;6.91;61.87;100180.19;4247334;33;33855;-78
2023/01/28 12:10:23;;;;;;;27.75;13.20;;;;;;;5.03;65.86;100185.25;4257377;33;33319;-78